Time;durP1;ratioP1;P1;durP2;ratioP2;P2;SDS_P1;SDS_P2;PMS_P1;PMS_P2;Temp;Humidity;BMP_temperature;BMP_pressure;BME280_temperature;BME280_humidity;BME280_pressure;Samples;Min_cycle;Max_cycle;Signal;HPM_P1;HPM_P2
2022/08/03 00:01:18;;;;;;;7.40;2.13;;;19.60;99.90;;;;;;5112620;27;20035;-81
2022/08/03 00:03:44;;;;;;;9.35;2.47;;;19.50;99.90;;;;;;5120620;27;20031;-80
2022/08/03 00:06:10;;;;;;;9.60;2.08;;;19.50;99.90;;;;;;5126990;27;20426;-80
2022/08/03 00:08:35;;;;;;;9.27;2.50;;;19.50;99.90;;;;;;5108118;28;20036;-80
2022/08/03 00:11:02;;;;;;;5.15;2.30;;;19.40;99.90;;;;;;5127274;27;20035;-80
2022/08/03 00:13:28;;;;;;;7.47;2.40;;;19.50;99.90;;;;;;5126944;27;20062;-80
2022/08/03 00:15:54;;;;;;;8.77;2.58;;;19.40;99.90;;;;;;5122992;27;20039;-79
2022/08/03 00:18:20;;;;;;;;;;;19.40;99.90;;;;;;5101389;27;20038;-80
2022/08/03 00:20:46;;;;;;;9.38;2.53;;;19.50;99.90;;;;;;5106366;27;20329;-80
2022/08/03 00:23:11;;;;;;;9.77;2.35;;;19.40;99.90;;;;;;5122349;27;20035;-80
2022/08/03 00:25:37;;;;;;;6.38;1.98;;;19.40;99.90;;;;;;5108129;27;20085;-79
2022/08/03 00:28:04;;;;;;;10.55;2.83;;;19.40;99.90;;;;;;5120790;27;20043;-80
2022/08/03 00:30:31;;;;;;;6.90;2.50;;;19.30;99.90;;;;;;5128634;27;20058;-80
2022/08/03 00:32:57;;;;;;;8.80;2.63;;;19.30;99.90;;;;;;5119155;27;20027;-80
2022/08/03 00:35:23;;;;;;;;;;;19.30;99.90;;;;;;5081957;27;20039;-80
2022/08/03 00:37:48;;;;;;;8.95;2.50;;;19.30;99.90;;;;;;5122873;27;19938;-80
2022/08/03 00:40:15;;;;;;;10.75;3.05;;;19.30;99.90;;;;;;5123734;27;20035;-79
2022/08/03 00:42:49;;;;;;;9.57;2.60;;;19.20;99.90;;;;;;5106207;27;20047;-79
2022/08/03 00:45:16;;;;;;;7.20;2.30;;;19.30;99.90;;;;;;5100710;27;20040;-79
2022/08/03 00:47:42;;;;;;;8.60;2.58;;;19.20;99.90;;;;;;5125754;27;20503;-79
2022/08/03 00:50:08;;;;;;;11.23;3.13;;;19.20;99.90;;;;;;5100253;27;20114;-80
2022/08/03 00:52:34;;;;;;;8.05;2.50;;;19.20;99.90;;;;;;5119792;27;20510;-80
2022/08/03 00:55:00;;;;;;;;;;;19.10;99.90;;;;;;5115486;27;20040;-80
2022/08/03 00:57:28;;;;;;;8.13;2.60;;;19.10;99.90;;;;;;5117447;27;19919;-80
2022/08/03 00:59:54;;;;;;;9.10;2.72;;;19.00;99.90;;;;;;5102167;28;20042;-79
2022/08/03 01:02:20;;;;;;;6.55;2.15;;;19.00;99.90;;;;;;5121575;27;20031;-80
2022/08/03 01:04:46;;;;;;;8.07;2.80;;;19.00;99.90;;;;;;5108160;27;20042;-80
2022/08/03 01:07:38;;;;;;;6.35;2.63;;;19.00;99.90;;;;;;5119837;27;20107;-80
2022/08/03 01:10:37;;;;;;;4.45;2.40;;;18.90;99.90;;;;;;5116596;27;20071;-80
2022/08/03 01:13:47;;;;;;;7.90;2.63;;;18.90;99.90;;;;;;5117515;27;20506;-80
2022/08/03 01:16:35;;;;;;;8.13;2.50;;;18.90;99.90;;;;;;5096611;28;20056;-79
2022/08/03 01:19:31;;;;;;;7.22;2.40;;;18.90;99.90;;;;;;5117651;27;20035;-79
2022/08/03 01:22:16;;;;;;;7.07;2.55;;;18.90;99.90;;;;;;5116690;27;20088;-79
2022/08/03 01:24:54;;;;;;;7.93;2.40;;;18.90;99.90;;;;;;5122136;27;20036;-79
2022/08/03 01:27:35;;;;;;;7.65;2.20;;;18.80;99.90;;;;;;5124052;27;20034;-79
2022/08/03 01:30:09;;;;;;;5.60;1.75;;;18.80;99.90;;;;;;5119708;27;20391;-79
2022/08/03 01:32:57;;;;;;;7.78;2.00;;;18.80;99.90;;;;;;5100893;28;20044;-80
2022/08/03 01:35:42;;;;;;;8.40;2.25;;;18.80;99.90;;;;;;5117587;27;20071;-79
2022/08/03 01:38:14;;;;;;;8.93;2.10;;;18.70;99.90;;;;;;5116943;27;20031;-80
2022/08/03 01:40:43;;;;;;;6.15;1.80;;;18.70;99.90;;;;;;5121741;27;20039;-79
2022/08/03 01:43:14;;;;;;;5.97;2.22;;;18.80;99.90;;;;;;5114624;27;20044;-79
2022/08/03 01:45:42;;;;;;;6.97;1.70;;;18.70;99.90;;;;;;5117178;27;20141;-80
2022/08/03 01:48:10;;;;;;;6.63;1.60;;;18.70;99.90;;;;;;5104979;28;20047;-79
2022/08/03 01:50:36;;;;;;;6.63;1.98;;;18.70;99.90;;;;;;5119398;27;20050;-80
2022/08/03 01:53:03;;;;;;;7.82;1.73;;;18.70;99.90;;;;;;5103421;28;20055;-79
2022/08/03 01:55:32;;;;;;;5.15;1.70;;;18.70;99.90;;;;;;5116373;27;20046;-80
2022/08/03 01:58:00;;;;;;;6.28;1.70;;;18.70;99.90;;;;;;5116722;27;20484;-80
2022/08/03 02:00:26;;;;;;;4.15;1.63;;;18.70;99.90;;;;;;5118148;27;20051;-80
2022/08/03 02:02:53;;;;;;;9.23;2.00;;;18.70;99.90;;;;;;5104644;28;20039;-80
2022/08/03 02:05:19;;;;;;;7.03;1.65;;;18.70;99.90;;;;;;5101356;27;20076;-79
2022/08/03 02:07:46;;;;;;;;;;;18.70;99.90;;;;;;5102436;28;20035;-80
2022/08/03 02:10:15;;;;;;;7.35;1.85;;;18.70;99.90;;;;;;5120304;27;20005;-80
2022/08/03 02:12:43;;;;;;;4.75;1.70;;;18.60;99.90;;;;;;5112097;28;20078;-80
2022/08/03 02:15:11;;;;;;;6.68;1.67;;;18.60;99.90;;;;;;5120886;28;20067;-79
2022/08/03 02:17:37;;;;;;;6.22;1.92;;;18.60;99.90;;;;;;5121590;28;20039;-80
2022/08/03 02:20:04;;;;;;;;;;;18.60;99.90;;;;;;5120572;28;20036;-79
2022/08/03 02:22:32;;;;;;;4.57;1.75;;;18.50;99.90;;;;;;5145234;27;19915;-80
2022/08/03 02:24:57;;;;;;;6.10;1.70;;;18.50;99.90;;;;;;5126162;28;20085;-80
2022/08/03 02:27:26;;;;;;;9.10;1.75;;;18.50;99.90;;;;;;5120948;28;20073;-79
2022/08/03 02:30:00;;;;;;;4.70;1.73;;;18.50;99.90;;;;;;5121131;28;20269;-79
2022/08/03 02:32:36;;;;;;;5.88;1.63;;;18.60;99.90;;;;;;5122140;28;20069;-80
2022/08/03 02:35:05;;;;;;;5.40;1.67;;;18.50;99.90;;;;;;5121524;28;20043;-79
2022/08/03 02:37:34;;;;;;;7.07;2.35;;;18.60;99.90;;;;;;5113946;28;20518;-80
2022/08/03 02:40:03;;;;;;;5.72;1.70;;;18.50;99.90;;;;;;5103671;28;20584;-80
2022/08/03 02:42:30;;;;;;;4.18;1.70;;;18.50;99.90;;;;;;5127067;28;20043;-80
2022/08/03 02:44:59;;;;;;;5.75;1.70;;;18.40;99.90;;;;;;5120835;28;20050;-80
2022/08/03 02:47:27;;;;;;;9.48;1.90;;;18.40;99.90;;;;;;5124574;28;20051;-81
2022/08/03 02:49:55;;;;;;;6.40;1.80;;;18.40;99.90;;;;;;5099453;28;20087;-80
2022/08/03 02:52:24;;;;;;;5.03;1.63;;;18.30;99.90;;;;;;5121059;28;20075;-80
2022/08/03 02:54:56;;;;;;;8.35;2.03;;;18.30;99.90;;;;;;5124381;28;20436;-80
2022/08/03 02:57:25;;;;;;;7.72;1.65;;;18.30;99.90;;;;;;5108519;28;20046;-80
2022/08/03 02:59:52;;;;;;;6.05;2.03;;;18.30;99.90;;;;;;5106341;28;20041;-80
2022/08/03 03:02:19;;;;;;;6.95;1.90;;;18.30;99.90;;;;;;5115551;28;20044;-80
2022/08/03 03:04:46;;;;;;;7.78;1.65;;;18.30;99.90;;;;;;5117210;28;20376;-80
2022/08/03 03:07:15;;;;;;;9.20;2.00;;;18.20;99.90;;;;;;5106274;28;20040;-80
2022/08/03 03:09:42;;;;;;;5.32;1.85;;;18.20;99.90;;;;;;5117115;28;20047;-80
2022/08/03 03:12:10;;;;;;;7.10;1.70;;;18.20;99.90;;;;;;5099721;28;20530;-80
2022/08/03 03:14:36;;;;;;;5.43;1.73;;;18.20;99.90;;;;;;5123734;28;20395;-80
2022/08/03 03:17:03;;;;;;;6.82;1.98;;;18.30;99.90;;;;;;5121355;28;20044;-80
2022/08/03 03:19:32;;;;;;;7.38;2.15;;;18.20;99.90;;;;;;5120859;28;20051;-80
2022/08/03 03:22:00;;;;;;;7.38;2.08;;;18.20;99.90;;;;;;5112872;28;20074;-80
2022/08/03 03:24:29;;;;;;;6.80;2.13;;;18.20;99.90;;;;;;5118596;28;20044;-80
2022/08/03 03:26:55;;;;;;;5.40;1.98;;;18.20;99.90;;;;;;5106182;28;20164;-79
2022/08/03 03:29:21;;;;;;;7.43;2.17;;;18.20;99.90;;;;;;5110709;28;20032;-81
2022/08/03 03:31:47;;;;;;;8.10;1.90;;;18.10;99.90;;;;;;5108742;27;20129;-80
2022/08/03 03:34:14;;;;;;;5.35;2.20;;;18.10;99.90;;;;;;5121031;27;20042;-80
2022/08/03 03:36:39;;;;;;;8.63;2.22;;;18.10;99.90;;;;;;5123520;27;20045;-80
2022/08/03 03:39:05;;;;;;;6.18;2.08;;;18.10;99.90;;;;;;5123773;27;20042;-79
2022/08/03 03:41:31;;;;;;;6.65;2.35;;;18.10;99.90;;;;;;5105959;27;20479;-80
2022/08/03 03:43:57;;;;;;;5.28;2.20;;;18.10;99.90;;;;;;5106388;27;20447;-80
2022/08/03 03:46:23;;;;;;;10.00;2.00;;;18.10;99.90;;;;;;5117383;27;20054;-80
2022/08/03 03:48:49;;;;;;;7.38;2.00;;;18.00;99.90;;;;;;5127183;27;20047;-80
2022/08/03 03:51:15;;;;;;;5.45;1.90;;;18.00;99.90;;;;;;5098546;28;20047;-80
2022/08/03 03:53:54;;;;;;;8.60;2.30;;;18.00;99.90;;;;;;5128473;27;20398;-79
2022/08/03 03:56:20;;;;;;;5.32;2.00;;;18.00;99.90;;;;;;5122308;27;20047;-79
2022/08/03 03:58:46;;;;;;;7.72;2.33;;;18.00;99.90;;;;;;5121937;27;20035;-79
2022/08/03 04:01:12;;;;;;;11.07;2.28;;;18.00;99.90;;;;;;5109645;28;20051;-79
2022/08/03 04:03:38;;;;;;;8.10;2.55;;;17.90;99.90;;;;;;5121311;27;20494;-79
2022/08/03 04:11:42;;;;;;;6.70;2.88;;;17.90;99.90;;;;;;5110519;27;20455;-79
2022/08/03 04:14:17;;;;;;;7.45;2.58;;;17.90;99.90;;;;;;5128350;27;20035;-80
2022/08/03 04:16:53;;;;;;;8.63;2.75;;;17.90;99.90;;;;;;5122180;27;20468;-80
2022/08/03 04:19:27;;;;;;;8.45;2.58;;;17.90;99.90;;;;;;5114875;27;20035;-79
2022/08/03 04:21:58;;;;;;;7.53;2.30;;;17.90;99.90;;;;;;5123723;27;20035;-79
2022/08/03 04:24:29;;;;;;;7.25;3.00;;;17.90;99.90;;;;;;5120824;27;20433;-79
2022/08/03 04:26:57;;;;;;;6.40;2.45;;;18.00;99.90;;;;;;5102076;27;20067;-81
2022/08/03 04:29:25;;;;;;;6.95;2.70;;;18.00;99.90;;;;;;5117284;27;20462;-81
2022/08/03 04:31:53;;;;;;;12.25;2.88;;;18.00;99.90;;;;;;5118074;27;20050;-81
2022/08/03 04:34:19;;;;;;;8.48;3.17;;;18.00;99.90;;;;;;5121524;27;20049;-81
2022/08/03 04:36:48;;;;;;;9.27;2.47;;;18.00;99.90;;;;;;5122288;27;20031;-81
2022/08/03 04:39:22;;;;;;;9.25;2.78;;;18.10;99.90;;;;;;5113587;27;20040;-79
2022/08/03 04:41:50;;;;;;;10.13;2.88;;;18.10;99.90;;;;;;5120917;27;20673;-78
2022/08/03 04:44:18;;;;;;;9.00;2.58;;;18.10;99.90;;;;;;5101981;27;20038;-78
2022/08/03 04:46:44;;;;;;;6.82;2.33;;;18.10;99.90;;;;;;5100134;27;20078;-80
2022/08/03 04:49:10;;;;;;;5.97;2.50;;;18.10;99.90;;;;;;5105292;27;20487;-80
2022/08/03 04:51:39;;;;;;;8.02;2.92;;;18.10;99.90;;;;;;5076048;28;20040;-80
2022/08/03 04:54:06;;;;;;;6.53;2.58;;;18.10;99.90;;;;;;5119813;27;20078;-80
2022/08/03 04:56:33;;;;;;;6.82;2.70;;;18.20;99.90;;;;;;5126589;27;20472;-80
2022/08/03 04:58:58;;;;;;;6.78;2.72;;;18.20;99.90;;;;;;5108234;27;20360;-80
2022/08/03 05:01:24;;;;;;;7.35;2.50;;;18.30;99.90;;;;;;5121439;27;20047;-80
2022/08/03 05:03:50;;;;;;;5.15;2.55;;;18.30;99.90;;;;;;5105364;27;20039;-80
2022/08/03 05:06:16;;;;;;;9.18;2.60;;;18.30;99.90;;;;;;5121890;27;20035;-80
2022/08/03 05:08:41;;;;;;;7.80;2.67;;;18.40;99.90;;;;;;5117221;27;20035;-80
2022/08/03 05:11:07;;;;;;;6.75;2.65;;;18.40;99.90;;;;;;5120118;27;20047;-80
2022/08/03 05:13:33;;;;;;;13.30;2.78;;;18.40;99.90;;;;;;5088314;27;20035;-80
2022/08/03 05:15:58;;;;;;;9.40;2.90;;;18.40;99.90;;;;;;5105841;27;20036;-80
2022/08/03 05:18:24;;;;;;;8.45;2.58;;;18.50;99.90;;;;;;5127518;27;20096;-80
2022/08/03 05:20:50;;;;;;;7.90;3.03;;;18.50;99.90;;;;;;5107191;27;20042;-80
2022/08/03 05:23:15;;;;;;;8.38;2.67;;;18.60;99.90;;;;;;5101537;27;20407;-80
2022/08/03 05:25:41;;;;;;;8.27;2.95;;;18.60;99.90;;;;;;5103202;27;20040;-79
2022/08/03 05:28:07;;;;;;;9.07;2.40;;;18.70;99.90;;;;;;5102443;28;20040;-79
2022/08/03 05:30:32;;;;;;;6.50;2.53;;;18.70;99.90;;;;;;5119968;27;20048;-79
2022/08/03 05:32:58;;;;;;;6.65;2.35;;;18.90;99.90;;;;;;5124869;27;20058;-79
2022/08/03 05:35:25;;;;;;;8.50;2.35;;;19.00;99.90;;;;;;5119500;27;20042;-79
2022/08/03 05:37:50;;;;;;;;;;;19.10;99.90;;;;;;5121644;27;20158;-80
2022/08/03 05:40:16;;;;;;;5.85;2.28;;;19.20;99.90;;;;;;5119116;27;20409;-79
2022/08/03 05:42:42;;;;;;;9.25;2.67;;;19.20;99.90;;;;;;5117169;27;20108;-79
2022/08/03 05:45:14;;;;;;;8.57;2.50;;;19.30;99.90;;;;;;5121060;27;20041;-78
2022/08/03 05:47:43;;;;;;;8.25;2.60;;;19.30;99.90;;;;;;5118821;27;20042;-79
2022/08/03 05:50:12;;;;;;;7.35;2.55;;;19.50;99.90;;;;;;5103110;28;20044;-79
2022/08/03 05:52:39;;;;;;;8.68;2.60;;;19.50;99.90;;;;;;5119143;27;20423;-81
2022/08/03 05:55:09;;;;;;;10.85;2.95;;;19.60;99.90;;;;;;5103465;27;20043;-79
2022/08/03 05:57:35;;;;;;;8.68;2.65;;;19.80;99.90;;;;;;5121381;27;20063;-79
2022/08/03 06:00:06;;;;;;;6.40;2.65;;;19.90;99.90;;;;;;5122125;27;20074;-80
2022/08/03 06:02:32;;;;;;;6.25;2.40;;;20.00;99.90;;;;;;5121153;27;20129;-79
2022/08/03 06:04:57;;;;;;;8.93;2.83;;;20.10;99.90;;;;;;5104432;27;20047;-79
2022/08/03 06:07:23;;;;;;;6.97;3.00;;;20.20;99.90;;;;;;5120507;27;20031;-80
2022/08/03 06:09:49;;;;;;;7.65;2.58;;;20.40;99.90;;;;;;5119000;27;20648;-80
2022/08/03 06:12:15;;;;;;;9.80;2.47;;;20.60;99.90;;;;;;5103954;28;20091;-78
2022/08/03 06:14:41;;;;;;;11.10;2.50;;;20.80;99.90;;;;;;5087840;28;20118;-79
2022/08/03 06:17:07;;;;;;;10.68;2.72;;;20.90;99.90;;;;;;5118400;28;20034;-79
2022/08/03 06:19:32;;;;;;;9.02;2.40;;;21.10;99.90;;;;;;5118992;28;20550;-85
2022/08/03 06:21:58;;;;;;;11.98;2.60;;;21.30;99.90;;;;;;5104640;28;20035;-85
2022/08/03 06:24:24;;;;;;;9.18;2.25;;;21.70;99.90;;;;;;5123973;28;20031;-85
2022/08/03 06:26:49;;;;;;;8.40;2.50;;;22.00;99.90;;;;;;5101811;28;20115;-85
2022/08/03 06:29:15;;;;;;;9.23;2.40;;;22.20;99.90;;;;;;5122315;28;20035;-85
2022/08/03 06:31:41;;;;;;;6.25;2.20;;;22.40;99.90;;;;;;5067933;28;20036;-84
2022/08/03 06:34:07;;;;;;;9.85;2.10;;;22.70;99.90;;;;;;5101970;28;20509;-80
2022/08/03 06:36:32;;;;;;;9.68;2.38;;;23.00;99.90;;;;;;5103951;28;20043;-87
2022/08/03 06:38:59;;;;;;;5.80;2.15;;;23.20;99.90;;;;;;5109421;28;20068;-87
2022/08/03 06:41:26;;;;;;;7.90;2.30;;;23.40;99.90;;;;;;5116388;28;20050;-87
2022/08/03 06:43:52;;;;;;;8.60;2.17;;;23.70;99.90;;;;;;5102715;28;20047;-89
2022/08/03 06:46:17;;;;;;;;;;;23.90;99.90;;;;;;5104053;28;20039;-86
2022/08/03 06:48:43;;;;;;;7.35;1.90;;;23.80;99.90;;;;;;5101959;28;19923;-89
2022/08/03 06:51:09;;;;;;;9.68;2.13;;;24.00;99.90;;;;;;5121670;28;20032;-87
2022/08/03 06:53:35;;;;;;;;;;;24.30;99.90;;;;;;5103258;28;20074;-87
2022/08/03 06:56:00;;;;;;;9.70;2.15;;;24.30;99.90;;;;;;5121610;28;19940;-91
2022/08/03 06:58:26;;;;;;;;;;;24.50;99.90;;;;;;5104088;28;20483;-90
2022/08/03 07:00:52;;;;;;;10.52;2.20;;;24.70;99.90;;;;;;5118360;28;20426;-91
2022/08/03 07:03:17;;;;;;;;;;;24.90;99.90;;;;;;5110657;27;20583;-88
2022/08/03 07:05:46;;;;;;;5.57;2.00;;;25.10;99.90;;;;;;5108944;27;19915;-89
2022/08/03 07:08:12;;;;;;;7.35;2.00;;;25.30;99.90;;;;;;5111798;27;20039;-88
2022/08/03 07:10:37;;;;;;;10.02;2.47;;;25.30;99.90;;;;;;5104778;27;20473;-89
2022/08/03 07:13:03;;;;;;;;;;;25.40;99.90;;;;;;5073627;27;20055;-88
2022/08/03 07:15:29;;;;;;;6.75;1.77;;;25.60;99.90;;;;;;5123580;27;20431;-89
2022/08/03 07:17:55;;;;;;;7.63;2.15;;;25.80;99.90;;;;;;5090415;27;20054;-88
2022/08/03 07:20:21;;;;;;;11.63;2.25;;;25.90;99.90;;;;;;5123724;27;20070;-89
2022/08/03 07:22:47;;;;;;;;;;;26.00;99.90;;;;;;5090842;28;20031;-89
2022/08/03 07:25:13;;;;;;;9.77;2.28;;;26.10;99.90;;;;;;5093826;27;19919;-90
2022/08/03 07:27:43;;;;;;;7.72;1.83;;;26.40;99.90;;;;;;5126983;27;20039;-90
2022/08/03 07:30:09;;;;;;;6.68;2.00;;;26.50;99.90;;;;;;5107656;27;20156;-88
2022/08/03 07:32:35;;;;;;;8.95;2.38;;;26.60;99.90;;;;;;5104204;27;20039;-88
2022/08/03 07:35:01;;;;;;;9.88;2.08;;;26.50;99.90;;;;;;5087002;27;20036;-89
2022/08/03 07:37:28;;;;;;;6.75;1.98;;;26.30;99.90;;;;;;5107256;27;20084;-88
2022/08/03 07:39:53;;;;;;;6.43;2.20;;;26.30;99.90;;;;;;5121051;27;20036;-88
2022/08/03 07:42:19;;;;;;;9.13;2.63;;;26.50;99.90;;;;;;5123287;27;20043;-86
2022/08/03 07:44:45;;;;;;;;;;;26.50;99.90;;;;;;5121009;27;20043;-86
2022/08/03 07:47:10;;;;;;;9.52;2.30;;;26.50;99.90;;;;;;5103649;27;19919;-79
2022/08/03 07:49:40;;;;;;;;;;;26.40;99.90;;;;;;5106443;27;20178;-79
2022/08/03 07:52:52;;;;;;;9.40;2.30;;;26.80;99.90;;;;;;5106611;27;19927;-79
2022/08/03 07:54:52;;;;;;;8.07;2.42;;;26.80;99.90;;;;;;5110079;27;20597;-79
2022/08/03 07:57:17;;;;;;;9.68;2.42;;;27.00;99.90;;;;;;5123225;27;20036;-79
2022/08/03 07:59:45;;;;;;;8.85;2.35;;;27.30;99.90;;;;;;5120931;27;20036;-79
2022/08/03 08:02:11;;;;;;;7.78;1.85;;;27.30;99.90;;;;;;5124668;27;20039;-80
2022/08/03 08:04:36;;;;;;;8.45;1.90;;;27.20;99.90;;;;;;5122928;27;20115;-80
2022/08/03 08:07:02;;;;;;;8.32;2.13;;;27.30;99.90;;;;;;5089802;27;20082;-80
2022/08/03 08:09:28;;;;;;;6.93;2.10;;;27.50;99.90;;;;;;5104947;27;20039;-80
2022/08/03 08:11:53;;;;;;;7.65;1.60;;;27.80;99.90;;;;;;5119978;27;20046;-80
2022/08/03 08:14:19;;;;;;;8.77;2.03;;;28.00;99.90;;;;;;5103494;27;20056;-80
2022/08/03 08:16:46;;;;;;;9.52;2.40;;;28.10;99.90;;;;;;5088252;27;20092;-79
2022/08/03 08:19:13;;;;;;;7.65;2.00;;;28.30;99.90;;;;;;5124735;27;20047;-80
2022/08/03 08:21:39;;;;;;;5.72;1.83;;;28.40;99.90;;;;;;5126288;27;20027;-79
2022/08/03 08:24:05;;;;;;;6.85;1.80;;;28.60;99.90;;;;;;5110848;27;20036;-79
2022/08/03 08:26:31;;;;;;;10.30;1.80;;;28.60;99.90;;;;;;5121540;27;20114;-79
2022/08/03 08:28:56;;;;;;;10.10;2.03;;;28.80;99.90;;;;;;5120673;27;20123;-79
2022/08/03 08:31:22;;;;;;;8.77;1.90;;;28.90;99.90;;;;;;5105128;27;20039;-79
2022/08/03 08:33:47;;;;;;;7.45;2.10;;;29.00;99.90;;;;;;5104946;27;20036;-79
2022/08/03 08:36:13;;;;;;;5.35;2.08;;;29.30;99.90;;;;;;5089342;27;20126;-78
2022/08/03 08:38:41;;;;;;;7.63;2.10;;;29.30;99.90;;;;;;5108060;27;20039;-78
2022/08/03 08:41:09;;;;;;;7.70;2.28;;;29.40;99.90;;;;;;5104350;27;20036;-79
2022/08/03 08:43:35;;;;;;;9.60;3.20;;;29.50;99.90;;;;;;5121369;27;20040;-80
2022/08/03 08:46:01;;;;;;;5.70;1.85;;;29.70;99.90;;;;;;5121359;27;20042;-80
2022/08/03 08:48:29;;;;;;;7.00;1.88;;;30.00;99.90;;;;;;5120360;27;20039;-80
2022/08/03 08:50:56;;;;;;;10.60;2.20;;;29.90;99.90;;;;;;5114897;27;20031;-80
2022/08/03 08:53:27;;;;;;;9.32;2.40;;;30.20;99.90;;;;;;5104878;27;20081;-80
2022/08/03 08:55:57;;;;;;;5.75;1.88;;;30.60;99.90;;;;;;5115013;27;20067;-79
2022/08/03 08:58:25;;;;;;;7.10;2.10;;;30.50;99.90;;;;;;5121983;27;20107;-80
2022/08/03 09:00:50;;;;;;;7.72;2.13;;;30.70;99.90;;;;;;5098536;27;20137;-80
2022/08/03 09:03:16;;;;;;;7.32;1.95;;;30.90;99.90;;;;;;5108392;27;20126;-80
2022/08/03 09:05:43;;;;;;;8.70;2.20;;;30.70;99.90;;;;;;5122199;27;20051;-80
2022/08/03 09:08:09;;;;;;;7.38;2.20;;;30.40;99.90;;;;;;5121884;27;20548;-79
2022/08/03 09:10:35;;;;;;;8.15;2.40;;;30.20;99.90;;;;;;5124894;27;20034;-79
2022/08/03 09:13:01;;;;;;;10.25;2.67;;;30.20;99.90;;;;;;5123591;27;20059;-79
2022/08/03 09:15:32;;;;;;;10.85;2.50;;;30.00;99.90;;;;;;5122312;27;20042;-78
2022/08/03 09:18:03;;;;;;;8.43;2.28;;;29.70;99.90;;;;;;5104958;27;20050;-79
2022/08/03 09:20:33;;;;;;;10.73;2.80;;;29.60;99.90;;;;;;5105796;27;20039;-79
2022/08/03 09:23:02;;;;;;;7.43;2.42;;;29.80;99.90;;;;;;5121242;27;20035;-79
2022/08/03 09:25:34;;;;;;;8.65;2.10;;;29.90;99.90;;;;;;5087171;27;20050;-79
2022/08/03 09:28:09;;;;;;;7.65;2.40;;;30.10;99.90;;;;;;5117402;27;20123;-79
2022/08/03 09:30:40;;;;;;;10.18;2.50;;;30.20;99.90;;;;;;5122037;27;20394;-79
2022/08/03 09:33:09;;;;;;;10.57;2.60;;;30.50;99.90;;;;;;5103109;27;20032;-79
2022/08/03 09:35:48;;;;;;;6.82;2.63;;;30.70;99.90;;;;;;5118889;27;20028;-79
2022/08/03 09:38:26;;;;;;;8.20;2.65;;;31.00;99.90;;;;;;5117407;27;20027;-78
2022/08/03 09:40:52;;;;;;;8.15;2.63;;;31.30;99.90;;;;;;5102529;27;20041;-79
2022/08/03 09:43:19;;;;;;;10.27;2.90;;;31.30;99.90;;;;;;5119483;27;20051;-79
2022/08/03 09:45:45;;;;;;;11.88;2.67;;;31.30;99.90;;;;;;5117951;27;20031;-79
2022/08/03 09:48:25;;;;;;;9.30;2.55;;;31.50;99.90;;;;;;5117641;27;20121;-79
2022/08/03 09:50:55;;;;;;;8.93;2.70;;;31.70;99.90;;;;;;5118631;27;20066;-80
2022/08/03 09:53:21;;;;;;;9.30;2.70;;;31.50;99.90;;;;;;5116848;27;20043;-79
2022/08/03 09:55:57;;;;;;;9.57;2.50;;;31.70;99.90;;;;;;5119990;27;20088;-80
2022/08/03 09:58:24;;;;;;;7.40;2.53;;;31.90;99.90;;;;;;5104127;27;20046;-79
2022/08/03 10:00:54;;;;;;;8.00;2.85;;;32.00;99.90;;;;;;5103621;28;20432;-79
2022/08/03 10:03:21;;;;;;;8.98;2.60;;;32.10;99.90;;;;;;5119407;27;20050;-80
2022/08/03 10:05:46;;;;;;;5.65;2.72;;;32.50;99.90;;;;;;5085186;27;20035;-80
2022/08/03 10:08:17;;;;;;;9.52;1.95;;;32.50;99.90;;;;;;5115759;27;20112;-79
2022/08/03 10:10:45;;;;;;;7.97;2.55;;;32.50;99.90;;;;;;5120038;27;20383;-79
2022/08/03 10:13:18;;;;;;;7.53;2.33;;;32.40;99.90;;;;;;5102279;28;20544;-79
2022/08/03 10:15:45;;;;;;;8.68;2.28;;;32.50;99.90;;;;;;5119774;27;20446;-80
2022/08/03 10:18:11;;;;;;;7.65;2.08;;;32.50;99.90;;;;;;5119068;28;20032;-80
2022/08/03 10:20:44;;;;;;;10.27;2.30;;;32.60;99.90;;;;;;5115413;28;20075;-80
2022/08/03 10:23:10;;;;;;;6.03;2.35;;;32.70;99.90;;;;;;5114740;28;20387;-80
2022/08/03 10:25:39;;;;;;;9.25;2.30;;;32.70;99.90;;;;;;5086283;28;20046;-79
2022/08/03 10:28:06;;;;;;;9.90;2.20;;;32.70;99.90;;;;;;5120102;28;20426;-78
2022/08/03 10:30:34;;;;;;;10.18;2.55;;;32.70;99.90;;;;;;5118414;28;20054;-78
2022/08/03 10:33:15;;;;;;;9.32;2.53;;;32.90;99.90;;;;;;5117264;28;20084;-79
2022/08/03 10:35:43;;;;;;;8.93;3.15;;;33.20;99.90;;;;;;5101283;27;20046;-78
2022/08/03 10:38:17;;;;;;;6.53;1.92;;;33.30;99.90;;;;;;5120594;27;20734;-78
2022/08/03 10:40:43;;;;;;;9.05;2.20;;;33.40;99.80;;;;;;5104066;27;20042;-79
2022/08/03 10:43:16;;;;;;;8.60;2.15;;;33.60;99.50;;;;;;5088150;27;20147;-79
2022/08/03 10:45:44;;;;;;;8.00;2.58;;;33.60;98.80;;;;;;5123967;27;20051;-78
2022/08/03 10:48:11;;;;;;;8.77;2.28;;;33.60;99.20;;;;;;5123135;27;20043;-79
2022/08/03 10:50:37;;;;;;;12.80;2.75;;;33.50;99.60;;;;;;5119126;27;20043;-79
2022/08/03 10:53:05;;;;;;;13.57;3.15;;;33.70;99.70;;;;;;5108316;27;20044;-79
2022/08/03 10:58:37;;;;;;;9.90;2.67;;;34.30;98.50;;;;;;5130390;27;20414;-78
2022/08/03 11:01:04;;;;;;;10.05;2.72;;;34.50;97.60;;;;;;5107024;27;20439;-79
2022/08/03 11:03:31;;;;;;;10.25;3.08;;;34.10;97.80;;;;;;5104855;27;20042;-79
2022/08/03 11:06:26;;;;;;;10.77;2.47;;;33.80;98.50;;;;;;5106274;27;20031;-79
2022/08/03 11:09:09;;;;;;;7.78;2.33;;;34.00;98.40;;;;;;5125199;27;20042;-78
2022/08/03 11:11:40;;;;;;;10.70;2.67;;;34.00;98.10;;;;;;5128873;27;20070;-78
2022/08/03 11:14:08;;;;;;;9.43;2.97;;;34.20;97.80;;;;;;5101508;28;20097;-78
2022/08/03 11:16:40;;;;;;;10.90;2.90;;;34.00;98.20;;;;;;5126337;27;20035;-77
2022/08/03 11:19:11;;;;;;;9.73;2.53;;;34.00;98.50;;;;;;5132765;27;20039;-80
2022/08/03 11:21:49;;;;;;;12.63;2.70;;;34.10;98.20;;;;;;5121372;27;20070;-79
2022/08/03 11:24:39;;;;;;;13.07;2.88;;;34.10;97.60;;;;;;5106581;27;20042;-82
2022/08/03 11:27:14;;;;;;;10.68;3.10;;;33.80;98.20;;;;;;5101085;27;20894;-82
2022/08/03 11:29:59;;;;;;;11.32;3.35;;;34.10;97.70;;;;;;5117840;27;20041;-88
2022/08/03 11:32:36;;;;;;;12.23;3.03;;;34.10;98.20;;;;;;5107869;27;20043;-87
2022/08/03 11:35:28;;;;;;;11.75;3.10;;;34.00;97.90;;;;;;5123396;27;20063;-90
2022/08/03 11:37:54;;;;;;;11.73;3.00;;;34.00;97.50;;;;;;5122143;27;20055;-87
2022/08/03 11:40:36;;;;;;;11.82;3.33;;;33.90;98.00;;;;;;5106590;27;20036;-88
2022/08/03 11:43:03;;;;;;;12.90;3.40;;;34.10;97.00;;;;;;5106166;27;20058;-85
2022/08/03 11:45:32;;;;;;;17.05;3.10;;;34.10;97.40;;;;;;5126836;27;20064;-86
2022/08/03 11:48:01;;;;;;;18.95;3.20;;;34.00;97.00;;;;;;5104967;28;20393;-84
2022/08/03 11:50:36;;;;;;;10.85;3.15;;;34.00;97.60;;;;;;5127436;27;20122;-84
2022/08/03 11:53:02;;;;;;;12.10;3.65;;;33.90;97.50;;;;;;5128030;27;20095;-83
2022/08/03 11:55:30;;;;;;;10.40;3.15;;;34.10;97.80;;;;;;5068023;27;20035;-83
2022/08/03 11:57:58;;;;;;;9.82;3.05;;;34.40;97.80;;;;;;5118079;27;20032;-86
2022/08/03 12:00:27;;;;;;;12.40;3.03;;;34.70;96.90;;;;;;5104638;27;20039;-84
2022/08/03 12:03:15;;;;;;;12.82;3.33;;;34.90;96.50;;;;;;5116596;27;20028;-86
2022/08/03 12:05:44;;;;;;;11.13;2.72;;;34.70;96.80;;;;;;5119359;27;20035;-86
2022/08/03 12:08:11;;;;;;;12.63;3.38;;;34.50;96.90;;;;;;5111026;27;20027;-87
2022/08/03 12:10:38;;;;;;;11.32;3.28;;;34.60;96.50;;;;;;5102247;27;20027;-84
2022/08/03 12:13:05;;;;;;;12.10;3.28;;;34.40;97.00;;;;;;5106286;27;20035;-84
2022/08/03 12:15:34;;;;;;;11.93;2.75;;;34.60;96.40;;;;;;5086828;28;20432;-83
2022/08/03 12:18:02;;;;;;;9.73;2.50;;;34.30;96.50;;;;;;5121670;27;20498;-83
2022/08/03 12:20:30;;;;;;;13.27;2.90;;;34.30;97.20;;;;;;5128410;27;20036;-83
2022/08/03 12:23:04;;;;;;;12.15;2.75;;;34.30;97.00;;;;;;5120970;27;20111;-83
2022/08/03 12:25:31;;;;;;;11.45;2.70;;;34.40;97.00;;;;;;5106558;27;20043;-83
2022/08/03 12:28:07;;;;;;;16.50;3.70;;;34.60;96.80;;;;;;5110849;27;20043;-83
2022/08/03 12:30:34;;;;;;;11.55;2.90;;;34.70;97.30;;;;;;5127917;27;20710;-83
2022/08/03 12:33:36;;;;;;;14.18;3.28;;;34.90;96.90;;;;;;5128352;27;20490;-84
2022/08/03 12:36:04;;;;;;;12.77;2.78;;;34.90;97.10;;;;;;5084677;27;20046;-82
2022/08/03 12:38:32;;;;;;;10.52;2.80;;;35.10;96.80;;;;;;5124593;27;20031;-83
2022/08/03 12:41:00;;;;;;;14.93;3.35;;;35.20;96.40;;;;;;5119775;27;20066;-83
2022/08/03 12:43:26;;;;;;;10.32;2.65;;;35.00;96.70;;;;;;5121473;27;20043;-83
2022/08/03 12:46:06;;;;;;;15.02;3.13;;;35.10;96.90;;;;;;5100603;27;20426;-83
2022/08/03 12:48:32;;;;;;;11.32;3.05;;;35.00;96.70;;;;;;5117492;27;20047;-83
2022/08/03 12:51:08;;;;;;;8.20;2.78;;;34.80;96.10;;;;;;5122323;27;20039;-83
2022/08/03 12:53:34;;;;;;;13.32;3.08;;;34.70;96.20;;;;;;5118071;27;20054;-83
2022/08/03 12:56:04;;;;;;;10.07;3.28;;;34.70;96.50;;;;;;5122733;27;20032;-82
2022/08/03 12:58:34;;;;;;;9.68;3.13;;;34.80;97.00;;;;;;5122695;27;20042;-83
2022/08/03 13:01:00;;;;;;;9.63;2.83;;;35.00;96.90;;;;;;5100846;27;20027;-84
2022/08/03 13:03:26;;;;;;;14.27;4.25;;;35.00;97.50;;;;;;5101491;28;20112;-84
2022/08/03 13:05:52;;;;;;;11.45;3.60;;;35.00;97.00;;;;;;5104611;27;20039;-84